Time;durP1;ratioP1;P1;durP2;ratioP2;P2;SDS_P1;SDS_P2;PMS_P1;PMS_P2;Temp;Humidity;BMP_temperature;BMP_pressure;BME280_temperature;BME280_humidity;BME280_pressure;Samples;Min_cycle;Max_cycle;Signal;HPM_P1;HPM_P2
2023/12/21 00:01:16;;;;;;;7.67;3.17;;;3.00;1.00;;;;;;9784107;30;20322;-79
2023/12/21 00:06:37;;;;;;;12.30;3.67;;;3.10;1.00;;;;;;9822262;30;20363;-79
2023/12/21 00:11:59;;;;;;;17.43;4.00;;;3.10;1.00;;;;;;9823764;30;20200;-80
2023/12/21 00:17:20;;;;;;;11.90;3.77;;;3.10;1.00;;;;;;9822349;30;20215;-79
2023/12/21 00:22:41;;;;;;;11.87;3.67;;;3.10;1.00;;;;;;9822179;30;20246;-82
2023/12/21 00:28:04;;;;;;;11.70;3.90;;;3.10;1.00;;;;;;9809674;30;20218;-80
2023/12/21 00:33:25;;;;;;;10.23;3.70;;;3.10;1.00;;;;;;9815844;30;20207;-79
2023/12/21 00:38:46;;;;;;;12.23;3.43;;;3.10;1.00;;;;;;9824262;30;20487;-79
2023/12/21 00:44:07;;;;;;;11.33;3.77;;;3.00;1.00;;;;;;9808300;30;20310;-81
2023/12/21 00:49:29;;;;;;;10.03;4.00;;;2.80;1.00;;;;;;9794290;30;20244;-79
2023/12/21 00:54:50;;;;;;;10.80;3.33;;;2.80;1.00;;;;;;9795251;30;20214;-79
2023/12/21 01:00:12;;;;;;;10.33;3.20;;;2.80;1.00;;;;;;9807802;30;20218;-80
2023/12/21 01:05:34;;;;;;;12.53;3.87;;;2.80;1.00;;;;;;9807455;30;20204;-80
2023/12/21 01:10:55;;;;;;;9.70;4.43;;;2.90;1.00;;;;;;9807013;30;20207;-80
2023/12/21 01:16:17;;;;;;;12.23;3.63;;;3.00;1.00;;;;;;9806670;30;20212;-79
2023/12/21 01:21:38;;;;;;;7.33;3.20;;;3.00;1.00;;;;;;9805184;30;20245;-84
2023/12/21 01:27:00;;;;;;;7.93;3.13;;;3.00;1.00;;;;;;9818720;30;20219;-84
2023/12/21 01:32:21;;;;;;;8.40;3.07;;;3.00;1.00;;;;;;9819740;30;20208;-79
2023/12/21 01:37:42;;;;;;;8.93;4.17;;;3.10;1.00;;;;;;9818666;30;20209;-85
2023/12/21 01:43:03;;;;;;;7.07;3.13;;;3.00;1.00;;;;;;9794045;30;20236;-79
2023/12/21 01:48:28;;;;;;;13.03;3.90;;;3.00;1.00;;;;;;9793293;30;20541;-83
2023/12/21 01:53:51;;;;;;;14.77;4.53;;;3.00;1.00;;;;;;9816155;30;20226;-87
2023/12/21 01:59:13;;;;;;;10.37;4.97;;;3.00;1.00;;;;;;9793833;30;20238;-87
2023/12/21 02:04:34;;;;;;;11.53;4.40;;;3.00;1.00;;;;;;9816827;30;20530;-80
2023/12/21 02:09:55;;;;;;;14.20;5.47;;;2.90;1.00;;;;;;9817852;30;20553;-80
2023/12/21 02:15:17;;;;;;;15.13;6.10;;;2.90;1.00;;;;;;9805280;30;20391;-80
2023/12/21 02:20:39;;;;;;;15.10;5.53;;;3.00;1.00;;;;;;9776988;30;20264;-81
2023/12/21 02:26:00;;;;;;;19.53;5.77;;;3.10;1.00;;;;;;9793033;30;20518;-80
2023/12/21 02:31:22;;;;;;;14.60;4.93;;;3.10;1.00;;;;;;9804896;30;20230;-83
2023/12/21 02:36:43;;;;;;;14.33;5.57;;;3.00;1.00;;;;;;9817713;30;20232;-82
2023/12/21 02:42:05;;;;;;;17.87;5.93;;;3.10;1.00;;;;;;9817830;30;20302;-85
2023/12/21 02:47:26;;;;;;;21.10;5.90;;;3.10;1.00;;;;;;9817899;30;20244;-87
2023/12/21 02:52:47;;;;;;;17.27;5.50;;;3.10;1.00;;;;;;9815939;30;20212;-79
2023/12/21 02:58:08;;;;;;;13.73;5.80;;;3.20;1.00;;;;;;9803986;30;20245;-88
2023/12/21 03:03:29;;;;;;;15.50;5.70;;;3.20;1.00;;;;;;9790515;30;20355;-83
2023/12/21 03:08:51;;;;;;;13.77;5.20;;;3.20;1.00;;;;;;9792401;30;20222;-80
2023/12/21 03:14:12;;;;;;;12.77;4.80;;;3.20;1.00;;;;;;9819858;30;20203;-82
2023/12/21 03:19:33;;;;;;;8.73;3.70;;;3.10;1.00;;;;;;9809816;30;20219;-80
2023/12/21 03:24:55;;;;;;;13.27;4.17;;;3.10;1.00;;;;;;9788167;30;20235;-86
2023/12/21 03:30:16;;;;;;;8.90;3.33;;;3.20;1.00;;;;;;9774820;30;20228;-80
2023/12/21 03:35:38;;;;;;;8.60;2.90;;;3.10;1.00;;;;;;9801528;30;20211;-82
2023/12/21 03:40:59;;;;;;;8.60;3.10;;;3.10;1.00;;;;;;9787569;30;20295;-82
2023/12/21 03:46:20;;;;;;;5.97;2.70;;;3.20;1.00;;;;;;9775745;30;20270;-82
2023/12/21 03:51:42;;;;;;;4.07;2.57;;;3.10;1.00;;;;;;9821896;30;20254;-82
2023/12/21 03:57:03;;;;;;;6.13;2.37;;;3.10;1.00;;;;;;9822518;30;20208;-87
2023/12/21 04:02:25;;;;;;;8.07;2.43;;;3.10;1.00;;;;;;9797571;30;20238;-82
2023/12/21 04:07:46;;;;;;;6.40;2.97;;;3.10;1.00;;;;;;9822137;30;20282;-84
2023/12/21 04:13:07;;;;;;;5.23;2.53;;;3.10;1.00;;;;;;9796978;30;20211;-81
2023/12/21 04:18:30;;;;;;;3.57;1.90;;;3.20;1.00;;;;;;9809104;30;20259;-81
2023/12/21 04:23:51;;;;;;;8.03;3.17;;;3.20;1.00;;;;;;9807558;30;20296;-83
2023/12/21 04:29:13;;;;;;;6.17;2.90;;;3.30;1.00;;;;;;9809247;30;20215;-85
2023/12/21 04:34:34;;;;;;;3.93;2.30;;;3.20;1.00;;;;;;9809545;30;20204;-82
2023/12/21 04:39:55;;;;;;;5.20;2.47;;;3.30;1.00;;;;;;9821425;30;20287;-88
2023/12/21 04:45:17;;;;;;;3.43;2.40;;;3.20;1.00;;;;;;9808394;30;20479;-80
2023/12/21 04:50:38;;;;;;;3.03;1.80;;;3.20;12.10;;;;;;9820080;30;20237;-85
2023/12/21 04:56:03;;;;;;;4.03;2.30;;;3.30;1.00;;;;;;9807628;30;20235;-88
2023/12/21 05:01:24;;;;;;;2.37;1.87;;;3.30;7.60;;;;;;9807897;30;20254;-86
2023/12/21 05:06:45;;;;;;;5.93;2.40;;;3.30;4.20;;;;;;9786458;30;20215;-86
2023/12/21 05:12:07;;;;;;;2.23;1.50;;;3.40;1.00;;;;;;9783905;30;20217;-87
2023/12/21 05:17:29;;;;;;;2.70;1.80;;;3.30;1.00;;;;;;9813868;30;20291;-85
2023/12/21 05:22:50;;;;;;;5.40;1.90;;;3.40;1.00;;;;;;9806602;30;20463;-86
2023/12/21 05:28:14;;;;;;;4.13;1.90;;;3.50;1.00;;;;;;9820191;30;20201;-86
2023/12/21 05:33:36;;;;;;;3.67;1.77;;;3.40;1.00;;;;;;9806858;30;20263;-81
2023/12/21 05:38:57;;;;;;;3.93;2.23;;;3.40;1.00;;;;;;9806306;30;20456;-88
2023/12/21 05:44:18;;;;;;;3.57;2.03;;;3.40;1.00;;;;;;9794544;30;20235;-88
2023/12/21 05:49:39;;;;;;;3.67;2.63;;;3.40;1.00;;;;;;9805132;30;20244;-87
2023/12/21 05:55:00;;;;;;;4.30;2.03;;;3.40;1.00;;;;;;9805840;30;20219;-82
2023/12/21 06:00:22;;;;;;;5.47;2.30;;;3.30;7.80;;;;;;9805775;30;20222;-81
2023/12/21 06:05:43;;;;;;;3.03;2.27;;;3.30;15.30;;;;;;9804733;30;20314;-84
2023/12/21 06:11:06;;;;;;;6.23;2.63;;;3.30;12.80;;;;;;9805437;30;20208;-81
2023/12/21 06:16:28;;;;;;;6.03;2.97;;;3.40;1.00;;;;;;9793123;30;20217;-83
2023/12/21 06:21:50;;;;;;;4.63;2.60;;;3.40;1.00;;;;;;9792585;30;20231;-83
2023/12/21 06:27:11;;;;;;;13.60;6.20;;;3.40;1.00;;;;;;9781772;30;20204;-80
2023/12/21 06:32:33;;;;;;;8.30;3.43;;;3.40;7.40;;;;;;9794748;30;20212;-81
2023/12/21 06:37:54;;;;;;;7.00;3.27;;;3.40;1.00;;;;;;9785042;30;20402;-89
2023/12/21 06:43:15;;;;;;;2.70;2.20;;;3.40;1.00;;;;;;9784805;30;20294;-83
2023/12/21 06:48:37;;;;;;;2.50;1.70;;;3.40;1.00;;;;;;9803445;30;20554;-79
2023/12/21 06:53:58;;;;;;;3.80;2.37;;;3.40;1.00;;;;;;9826489;30;20270;-85
2023/12/21 06:59:19;;;;;;;3.60;2.00;;;3.40;1.00;;;;;;9827169;30;20200;-79
2023/12/21 07:04:40;;;;;;;2.93;1.80;;;3.40;1.00;;;;;;9814333;30;20243;-81
2023/12/21 07:10:02;;;;;;;4.97;3.00;;;3.40;1.00;;;;;;9814743;30;20214;-81
2023/12/21 07:15:23;;;;;;;4.80;2.97;;;3.40;1.00;;;;;;9813978;30;20212;-80
2023/12/21 07:20:45;;;;;;;13.77;8.30;;;3.30;1.00;;;;;;9825131;30;20203;-81
2023/12/21 07:26:09;;;;;;;12.23;8.50;;;3.40;1.00;;;;;;9825709;30;20398;-79
2023/12/21 07:31:30;;;;;;;9.17;7.40;;;3.40;1.00;;;;;;9801452;30;20226;-79
2023/12/21 07:36:52;;;;;;;5.47;4.90;;;3.50;1.00;;;;;;9812185;30;20510;-80
2023/12/21 07:42:13;;;;;;;16.20;9.40;;;3.50;1.00;;;;;;9814690;30;20234;-80
2023/12/21 07:47:34;;;;;;;20.00;12.23;;;3.40;1.00;;;;;;9817919;30;20547;-87
2023/12/21 07:52:58;;;;;;;25.73;11.40;;;3.30;1.00;;;;;;9804800;30;20203;-88
2023/12/21 07:58:19;;;;;;;27.23;12.33;;;3.40;1.00;;;;;;9809909;30;20282;-88
2023/12/21 08:03:40;;;;;;;32.70;15.60;;;3.30;1.00;;;;;;9808453;30;20239;-81
2023/12/21 08:09:02;;;;;;;9.90;4.87;;;3.30;1.00;;;;;;9797786;30;20204;-83
2023/12/21 08:14:26;;;;;;;3.20;2.20;;;3.30;1.00;;;;;;9809904;30;20210;-81
2023/12/21 08:19:47;;;;;;;4.43;3.63;;;3.30;1.00;;;;;;9820635;30;20234;-80
2023/12/21 08:25:09;;;;;;;11.97;7.03;;;3.30;1.00;;;;;;9796814;30;20247;-81
2023/12/21 08:30:32;;;;;;;11.93;7.20;;;3.40;1.00;;;;;;9792200;30;20582;-82
2023/12/21 08:35:54;;;;;;;9.57;4.33;;;3.40;1.00;;;;;;9803511;30;20230;-81
2023/12/21 08:41:15;;;;;;;5.17;3.87;;;3.40;1.00;;;;;;9790587;30;21135;-82
2023/12/21 08:46:42;;;;;;;7.83;4.47;;;3.50;1.00;;;;;;9815587;30;20209;-82
2023/12/21 08:52:04;;;;;;;7.47;4.07;;;3.50;1.00;;;;;;9784419;30;20224;-82
2023/12/21 08:57:25;;;;;;;9.93;4.43;;;3.50;1.00;;;;;;9779292;30;20216;-80
2023/12/21 09:02:46;;;;;;;4.90;2.93;;;3.50;1.00;;;;;;9802091;30;20229;-81
2023/12/21 09:08:09;;;;;;;6.50;4.60;;;3.50;1.00;;;;;;9814914;30;20216;-80
2023/12/21 09:13:30;;;;;;;7.30;4.87;;;3.40;1.00;;;;;;9814503;30;20211;-80
2023/12/21 09:18:52;;;;;;;7.37;3.67;;;3.40;1.00;;;;;;9800800;30;20212;-80
2023/12/21 09:24:13;;;;;;;9.23;4.27;;;3.40;1.00;;;;;;9789072;30;20278;-81
2023/12/21 09:29:34;;;;;;;11.63;6.47;;;3.40;1.00;;;;;;9769582;30;20515;-80
2023/12/21 09:34:56;;;;;;;8.47;5.57;;;3.40;1.00;;;;;;9797154;30;20215;-80
2023/12/21 09:40:17;;;;;;;7.60;4.43;;;3.40;1.00;;;;;;9789053;30;20235;-81
2023/12/21 09:45:41;;;;;;;16.20;10.60;;;3.50;1.00;;;;;;9788501;30;20655;-81
2023/12/21 09:51:05;;;;;;;11.23;6.83;;;3.50;1.00;;;;;;9800580;30;20269;-81
2023/12/21 09:56:27;;;;;;;12.00;7.20;;;3.50;1.00;;;;;;9789345;30;20255;-81
2023/12/21 10:01:50;;;;;;;22.10;13.90;;;3.60;1.00;;;;;;9812559;30;20238;-81
2023/12/21 10:07:12;;;;;;;11.23;6.50;;;3.70;65.20;;;;;;9800436;30;20231;-83
2023/12/21 10:12:34;;;;;;;13.17;9.30;;;3.80;99.90;;;;;;9789250;30;20210;-83
2023/12/21 10:17:55;;;;;;;14.23;9.73;;;3.80;99.90;;;;;;9800605;30;20220;-83
2023/12/21 10:23:16;;;;;;;11.97;8.23;;;3.70;99.90;;;;;;9812057;30;20525;-84
2023/12/21 10:28:38;;;;;;;12.07;7.93;;;3.70;99.90;;;;;;9812525;30;20207;-87
2023/12/21 10:33:59;;;;;;;13.30;7.80;;;3.60;99.90;;;;;;9789039;30;20245;-81
2023/12/21 10:39:22;;;;;;;10.03;6.77;;;3.70;99.90;;;;;;9797727;30;20218;-82
2023/12/21 10:44:44;;;;;;;7.83;5.40;;;3.70;99.90;;;;;;9776530;30;20423;-82
2023/12/21 10:50:07;;;;;;;9.60;6.40;;;3.60;99.90;;;;;;9798180;30;20583;-82
2023/12/21 10:55:30;;;;;;;9.57;6.97;;;3.70;99.90;;;;;;9799562;30;20242;-81
2023/12/21 11:00:53;;;;;;;12.37;7.20;;;3.70;99.90;;;;;;9786853;30;20261;-82
2023/12/21 11:06:16;;;;;;;9.17;6.87;;;3.70;99.90;;;;;;9785562;30;20235;-81
2023/12/21 11:11:37;;;;;;;11.13;7.47;;;3.80;99.90;;;;;;9809509;30;20216;-79
2023/12/21 11:17:02;;;;;;;12.60;8.47;;;3.70;99.90;;;;;;9809514;30;20224;-83
2023/12/21 11:22:24;;;;;;;11.20;7.83;;;3.80;99.90;;;;;;9798271;30;20251;-80
2023/12/21 11:27:45;;;;;;;10.60;6.53;;;3.80;99.90;;;;;;9786200;30;20218;-77
2023/12/21 11:33:09;;;;;;;8.67;6.77;;;3.90;99.90;;;;;;9808258;30;20243;-81
2023/12/21 11:38:47;;;;;;;9.70;6.47;;;4.00;99.90;;;;;;9799581;30;20287;-83
2023/12/21 11:44:12;;;;;;;11.87;7.13;;;4.10;99.90;;;;;;9776035;30;20232;-81
2023/12/21 11:49:33;;;;;;;12.17;7.13;;;4.20;99.90;;;;;;9790516;30;20305;-78
2023/12/21 11:54:54;;;;;;;7.93;5.87;;;4.10;99.90;;;;;;9805908;30;20208;-82
2023/12/21 12:00:16;;;;;;;9.50;6.27;;;4.30;99.90;;;;;;9805034;30;20197;-91
2023/12/21 12:05:38;;;;;;;13.70;8.30;;;4.30;99.90;;;;;;9767240;30;20240;-88
2023/12/21 12:10:59;;;;;;;9.90;6.97;;;4.40;99.90;;;;;;9787131;30;20216;-83
2023/12/21 12:16:21;;;;;;;9.83;6.80;;;4.50;99.90;;;;;;9803789;30;20221;-81
2023/12/21 12:21:42;;;;;;;11.47;7.00;;;4.60;99.90;;;;;;9804999;30;20285;-79
2023/12/21 12:27:04;;;;;;;13.60;6.33;;;4.80;99.90;;;;;;9780775;30;20227;-81
2023/12/21 12:32:26;;;;;;;11.07;5.50;;;4.80;99.90;;;;;;9802477;30;20308;-78
2023/12/21 12:37:51;;;;;;;9.13;5.23;;;4.90;99.90;;;;;;9815511;30;20214;-86
2023/12/21 12:43:12;;;;;;;9.37;5.10;;;4.90;99.90;;;;;;9781549;30;20321;-82
2023/12/21 12:48:33;;;;;;;6.70;5.03;;;5.10;99.90;;;;;;9791390;30;20259;-77
2023/12/21 12:53:56;;;;;;;6.73;4.10;;;5.30;99.90;;;;;;9816012;30;20206;-79
2023/12/21 12:59:20;;;;;;;6.47;3.90;;;5.30;99.90;;;;;;9815038;30;20210;-85
2023/12/21 13:04:42;;;;;;;7.57;3.67;;;5.40;99.90;;;;;;9802146;30;20311;-85
2023/12/21 13:10:04;;;;;;;5.20;2.83;;;5.50;99.90;;;;;;9781237;30;20262;-81
2023/12/21 13:15:25;;;;;;;9.67;5.03;;;5.60;99.90;;;;;;9755625;30;20237;-81
2023/12/21 13:20:47;;;;;;;6.37;4.20;;;5.70;99.90;;;;;;9773125;30;20216;-83
2023/12/21 13:26:09;;;;;;;8.57;5.17;;;5.90;99.90;;;;;;9789918;30;20244;-77
2023/12/21 13:31:30;;;;;;;7.33;4.03;;;5.90;99.90;;;;;;9801391;30;20220;-86
2023/12/21 13:36:53;;;;;;;6.03;2.80;;;5.90;99.90;;;;;;9789718;30;20204;-89
2023/12/21 13:42:15;;;;;;;9.03;4.00;;;5.90;99.90;;;;;;9801156;30;20476;-85
2023/12/21 13:47:38;;;;;;;8.50;4.23;;;6.00;99.90;;;;;;9809514;30;23260;-79
2023/12/21 13:52:59;;;;;;;9.03;5.07;;;6.00;99.90;;;;;;9783775;30;20216;-81
2023/12/21 13:58:20;;;;;;;6.20;4.13;;;6.10;99.90;;;;;;9776106;30;20395;-78
2023/12/21 14:03:42;;;;;;;7.70;4.73;;;6.10;99.90;;;;;;9803991;30;20234;-79
2023/12/21 14:09:04;;;;;;;7.13;3.93;;;6.10;99.90;;;;;;9800753;30;20666;-79
2023/12/21 14:14:25;;;;;;;8.73;4.60;;;6.20;99.90;;;;;;9812739;30;20217;-81
2023/12/21 14:19:47;;;;;;;18.13;7.40;;;6.30;99.90;;;;;;9811315;30;20230;-82
2023/12/21 14:25:08;;;;;;;14.00;6.73;;;6.30;99.90;;;;;;9811619;30;20404;-80
2023/12/21 14:30:29;;;;;;;7.80;4.07;;;6.30;99.90;;;;;;9807770;30;20231;-80
2023/12/21 14:35:50;;;;;;;16.87;7.33;;;6.30;99.90;;;;;;9809882;30;20486;-80
2023/12/21 14:41:13;;;;;;;8.87;4.80;;;6.30;99.90;;;;;;9798992;30;20255;-78
2023/12/21 14:46:39;;;;;;;11.20;5.93;;;6.40;99.90;;;;;;9799233;30;20392;-77
2023/12/21 14:52:01;;;;;;;11.77;5.67;;;6.50;99.90;;;;;;9799239;30;20599;-79
2023/12/21 14:57:22;;;;;;;4.17;2.90;;;6.50;99.90;;;;;;9787316;30;20237;-77
2023/12/21 15:02:44;;;;;;;3.00;2.10;;;6.60;99.90;;;;;;9802514;30;20493;-79
2023/12/21 15:08:05;;;;;;;4.67;2.63;;;6.60;99.90;;;;;;9800445;30;20243;-86
2023/12/21 15:13:27;;;;;;;3.97;2.53;;;6.50;99.90;;;;;;9797995;30;20233;-82
2023/12/21 15:18:48;;;;;;;4.30;2.43;;;6.50;99.90;;;;;;9832592;30;20218;-82
2023/12/21 15:24:09;;;;;;;6.43;3.17;;;6.50;99.90;;;;;;9842222;30;20236;-82
2023/12/21 15:29:31;;;;;;;5.53;2.70;;;6.50;99.90;;;;;;9801748;30;20520;-80
2023/12/21 15:34:52;;;;;;;12.23;6.43;;;6.50;99.90;;;;;;9817351;30;20222;-80
2023/12/21 15:40:14;;;;;;;11.60;6.57;;;6.50;99.90;;;;;;9815899;30;20226;-82
2023/12/21 15:45:35;;;;;;;10.87;6.50;;;6.50;99.90;;;;;;9781839;30;20321;-81
2023/12/21 15:50:57;;;;;;;10.40;6.70;;;6.50;99.90;;;;;;9787521;30;20247;-79
2023/12/21 15:56:18;;;;;;;6.90;3.80;;;6.50;99.90;;;;;;9817388;30;20214;-78
2023/12/21 16:01:39;;;;;;;7.93;5.57;;;6.50;99.90;;;;;;9790840;30;20252;-80
2023/12/21 16:07:01;;;;;;;5.50;3.87;;;6.50;99.90;;;;;;9804350;30;20240;-80
2023/12/21 16:12:22;;;;;;;11.77;6.20;;;6.60;99.90;;;;;;9803472;30;20215;-80
2023/12/21 16:17:44;;;;;;;10.30;4.13;;;6.70;99.90;;;;;;9819145;30;20508;-78
2023/12/21 16:23:05;;;;;;;7.63;4.23;;;6.70;99.90;;;;;;9795709;30;20302;-82
2023/12/21 16:28:26;;;;;;;5.63;3.70;;;6.70;99.90;;;;;;9822486;30;20252;-81
2023/12/21 16:33:47;;;;;;;3.63;1.70;;;6.70;99.90;;;;;;9821085;30;20221;-84
2023/12/21 16:39:08;;;;;;;5.70;1.33;;;6.70;99.90;;;;;;9840460;30;20213;-79
2023/12/21 16:44:29;;;;;;;1.20;0.90;;;6.80;99.90;;;;;;9809170;30;20239;-81
2023/12/21 16:49:51;;;;;;;2.93;0.80;;;7.10;99.90;;;;;;9771443;30;20308;-79
2023/12/21 16:55:12;;;;;;;1.03;0.60;;;7.00;99.90;;;;;;9781305;30;20230;-82
2023/12/21 17:00:33;;;;;;;2.40;0.90;;;6.80;1.00;;;;;;9789001;30;20438;-78
2023/12/21 17:05:57;;;;;;;2.63;1.03;;;6.50;1.00;;;;;;9817192;30;20234;-78
2023/12/21 17:11:18;;;;;;;0.50;0.50;;;6.40;1.00;;;;;;9818491;30;20200;-84
2023/12/21 17:16:41;;;;;;;2.07;0.90;;;6.30;1.00;;;;;;9803239;30;20233;-82
2023/12/21 17:22:06;;;;;;;1.10;0.80;;;6.20;1.00;;;;;;9810957;30;20217;-78
2023/12/21 17:27:28;;;;;;;2.13;0.93;;;6.10;1.00;;;;;;9808548;30;20242;-87
2023/12/21 17:32:50;;;;;;;5.83;1.73;;;6.20;1.00;;;;;;9804538;30;20214;-83
2023/12/21 17:38:12;;;;;;;2.07;1.53;;;6.10;42.00;;;;;;9808031;30;20210;-85
2023/12/21 17:43:33;;;;;;;4.20;0.87;;;6.00;76.60;;;;;;9781149;30;20244;-81
2023/12/21 17:49:14;;;;;;;3.37;0.90;;;6.00;99.90;;;;;;9790908;30;20253;-81
2023/12/21 17:54:55;;;;;;;4.93;2.10;;;6.00;99.90;;;;;;9819129;30;20225;-81
2023/12/21 18:00:17;;;;;;;8.73;3.27;;;6.10;99.90;;;;;;9805825;30;20290;-83
2023/12/21 18:05:38;;;;;;;10.80;1.97;;;6.10;4.90;;;;;;9788070;30;20423;-82
2023/12/21 18:10:59;;;;;;;5.87;1.93;;;6.20;1.00;;;;;;9805838;30;20220;-80
2023/12/21 18:16:20;;;;;;;15.13;2.83;;;6.10;1.00;;;;;;9805245;30;20214;-80
2023/12/21 18:21:42;;;;;;;13.57;2.43;;;6.20;1.00;;;;;;9817880;30;20260;-85
2023/12/21 18:27:23;;;;;;;12.53;2.77;;;6.20;1.00;;;;;;9817525;30;20269;-83
2023/12/21 18:33:04;;;;;;;17.13;2.57;;;6.20;1.00;;;;;;9822510;30;20218;-79
2023/12/21 18:38:48;;;;;;;12.93;2.97;;;6.20;1.00;;;;;;9818211;30;20216;-79
2023/12/21 18:44:29;;;;;;;20.20;3.13;;;6.20;1.00;;;;;;9800259;30;20243;-83
2023/12/21 18:50:10;;;;;;;19.40;3.70;;;6.20;1.00;;;;;;9825595;30;20299;-86
2023/12/21 18:55:39;;;;;;;15.77;2.40;;;6.10;1.00;;;;;;9825003;30;20205;-81
2023/12/21 19:01:02;;;;;;;14.53;2.67;;;6.20;1.00;;;;;;9799325;30;20262;-79
2023/12/21 19:06:24;;;;;;;17.47;3.43;;;6.10;5.60;;;;;;9817268;30;20431;-84
2023/12/21 19:11:45;;;;;;;17.07;3.13;;;6.00;1.00;;;;;;9824160;30;20202;-86
2023/12/21 19:17:06;;;;;;;23.83;3.40;;;5.90;1.00;;;;;;9823767;30;20225;-85
2023/12/21 19:22:28;;;;;;;15.13;2.63;;;5.80;99.90;;;;;;9823581;30;20212;-85
2023/12/21 19:27:50;;;;;;;17.17;3.43;;;5.80;99.90;;;;;;9798812;30;20217;-79
2023/12/21 19:33:13;;;;;;;23.13;3.63;;;5.90;13.00;;;;;;9821816;30;20209;-78
2023/12/21 19:38:34;;;;;;;16.80;3.10;;;5.80;1.00;;;;;;9822808;30;20215;-79
2023/12/21 19:43:56;;;;;;;17.80;3.60;;;5.80;1.00;;;;;;9822493;30;20258;-84
2023/12/21 19:49:17;;;;;;;15.93;3.43;;;5.70;1.00;;;;;;9822646;30;20250;-80
2023/12/21 19:54:38;;;;;;;17.73;3.60;;;5.50;99.90;;;;;;9822398;30;20204;-86
2023/12/21 19:59:59;;;;;;;22.70;3.63;;;5.40;99.90;;;;;;9822672;30;20414;-86
2023/12/21 20:05:26;;;;;;;26.30;3.47;;;5.30;1.00;;;;;;9809611;30;20298;-78
2023/12/21 20:10:47;;;;;;;23.17;3.80;;;5.30;1.00;;;;;;9809472;30;20326;-84
2023/12/21 20:16:10;;;;;;;18.60;4.07;;;5.20;1.00;;;;;;9820125;30;20218;-81
2023/12/21 20:21:32;;;;;;;24.13;4.40;;;5.20;1.00;;;;;;9821110;30;20495;-80
2023/12/21 20:26:53;;;;;;;20.37;4.40;;;5.10;1.00;;;;;;9809001;30;20233;-84
2023/12/21 20:32:14;;;;;;;22.00;4.97;;;5.10;99.90;;;;;;9814822;30;20223;-84
2023/12/21 20:37:35;;;;;;;18.93;3.77;;;5.10;1.00;;;;;;9821903;30;20289;-83
2023/12/21 20:42:57;;;;;;;21.83;4.03;;;5.10;1.00;;;;;;9807916;30;20260;-80
2023/12/21 20:48:18;;;;;;;23.77;4.07;;;5.10;1.00;;;;;;9807797;30;20386;-79
2023/12/21 20:53:39;;;;;;;24.80;4.90;;;5.20;1.00;;;;;;9819425;30;20220;-79
2023/12/21 20:59:01;;;;;;;19.77;3.87;;;5.20;1.00;;;;;;9808263;30;20223;-79
2023/12/21 21:04:23;;;;;;;24.90;3.93;;;5.10;1.00;;;;;;9819834;30;20308;-80
2023/12/21 21:09:44;;;;;;;27.37;4.67;;;5.10;99.90;;;;;;9804854;30;20211;-85
2023/12/21 21:15:06;;;;;;;18.70;4.07;;;5.10;99.90;;;;;;9818573;30;20277;-87
2023/12/21 21:20:28;;;;;;;26.73;4.60;;;5.10;99.90;;;;;;9816271;30;20216;-80
2023/12/21 21:25:49;;;;;;;23.60;4.83;;;5.10;72.80;;;;;;9819043;30;20421;-78
2023/12/21 21:31:15;;;;;;;19.07;4.83;;;5.00;99.90;;;;;;9806300;30;20204;-80
2023/12/21 21:36:41;;;;;;;27.27;4.43;;;5.00;1.00;;;;;;9817028;30;20229;-79
2023/12/21 21:42:03;;;;;;;21.10;4.93;;;5.00;1.00;;;;;;9817743;30;20212;-83
2023/12/21 21:47:24;;;;;;;22.67;5.37;;;4.90;1.00;;;;;;9806137;30;20256;-83
2023/12/21 21:52:45;;;;;;;19.50;4.20;;;5.00;1.00;;;;;;9819328;30;20201;-80
2023/12/21 21:58:07;;;;;;;18.23;4.13;;;4.90;1.00;;;;;;9805615;30;20220;-79
2023/12/21 22:03:28;;;;;;;32.90;5.53;;;4.90;1.00;;;;;;9817891;30;20236;-79
2023/12/21 22:08:49;;;;;;;23.23;3.77;;;4.90;99.90;;;;;;9817635;30;20518;-81
2023/12/21 22:14:10;;;;;;;29.67;4.40;;;4.90;1.00;;;;;;9805215;30;20216;-82
2023/12/21 22:19:32;;;;;;;27.70;5.40;;;4.70;99.90;;;;;;9818475;30;20282;-85
2023/12/21 22:24:54;;;;;;;25.03;5.57;;;4.60;1.00;;;;;;9805447;30;20576;-86
2023/12/21 22:30:15;;;;;;;22.10;4.03;;;4.50;1.00;;;;;;9817870;30;20585;-86
2023/12/21 22:35:36;;;;;;;21.13;4.33;;;4.50;99.90;;;;;;9817582;30;20215;-85
2023/12/21 22:40:58;;;;;;;23.70;3.90;;;4.30;1.00;;;;;;9817438;30;20268;-79
2023/12/21 22:46:19;;;;;;;24.53;4.70;;;4.30;1.00;;;;;;9792409;30;20319;-80
2023/12/21 22:51:44;;;;;;;21.20;5.30;;;4.20;1.00;;;;;;9817739;30;20240;-81
2023/12/21 22:57:05;;;;;;;28.87;5.57;;;4.20;99.90;;;;;;9816997;30;20395;-79
2023/12/21 23:02:27;;;;;;;21.07;3.67;;;4.00;99.90;;;;;;9804605;30;20211;-80
2023/12/21 23:07:48;;;;;;;17.27;3.90;;;3.80;99.90;;;;;;9816827;30;20544;-86
2023/12/21 23:13:16;;;;;;;9.70;3.23;;;3.70;1.00;;;;;;9804455;30;20494;-83
2023/12/21 23:18:38;;;;;;;10.53;2.87;;;3.60;1.00;;;;;;9816672;30;20240;-83
2023/12/21 23:23:59;;;;;;;9.23;2.90;;;3.60;99.90;;;;;;9804907;30;20223;-81
2023/12/21 23:29:22;;;;;;;12.60;2.97;;;3.40;1.00;;;;;;9817839;30;20206;-82
2023/12/21 23:34:43;;;;;;;13.30;2.67;;;3.50;1.00;;;;;;9823252;30;20250;-82
2023/12/21 23:40:05;;;;;;;12.53;2.90;;;3.50;99.90;;;;;;9822317;30;20282;-79
2023/12/21 23:45:27;;;;;;;10.07;2.30;;;3.70;6.60;;;;;;9786611;30;20319;-79
2023/12/21 23:50:48;;;;;;;11.33;2.90;;;3.70;99.90;;;;;;9786165;30;20247;-82
2023/12/21 23:56:09;;;;;;;9.80;2.30;;;3.70;1.00;;;;;;9785960;30;20219;-79
